createdAt,value
2024-04-23T00:01:23.135Z,62.75
2024-04-23T00:03:45.175Z,62.86
2024-04-23T00:06:06.999Z,63.27
2024-04-23T00:08:28.789Z,62.92
2024-04-23T00:10:50.680Z,62.86
2024-04-23T00:13:12.517Z,62.96
2024-04-23T00:15:34.394Z,63.01
2024-04-23T00:17:56.310Z,62.96
2024-04-23T00:20:18.148Z,62.92
2024-04-23T00:22:40.044Z,63.19
2024-04-23T00:25:01.921Z,63.10
2024-04-23T00:27:23.746Z,63.16
2024-04-23T00:29:45.577Z,63.45
2024-04-23T00:32:07.467Z,64.01
2024-04-23T00:34:29.354Z,63.95
2024-04-23T00:37:00.719Z,64.33
2024-04-23T00:39:24.079Z,64.00
2024-04-23T00:41:45.938Z,64.49
2024-04-23T00:44:08.227Z,64.88
2024-04-23T00:46:31.383Z,64.77
2024-04-23T00:48:53.256Z,64.93
2024-04-23T00:51:15.147Z,64.73
2024-04-23T00:53:37.465Z,65.40
2024-04-23T00:55:59.394Z,65.25
2024-04-23T00:58:21.891Z,65.23
2024-04-23T01:00:43.764Z,64.81
2024-04-23T01:03:05.956Z,64.69
2024-04-23T01:05:28.352Z,64.77
2024-04-23T01:07:50.247Z,64.84
2024-04-23T01:10:12.113Z,64.97
2024-04-23T01:12:34.102Z,64.87
2024-04-23T01:14:58.067Z,65.42
2024-04-23T01:17:22.625Z,65.44
2024-04-23T01:19:51.474Z,65.46
2024-04-23T01:22:30.339Z,65.28
2024-04-23T01:25:12.417Z,65.57
2024-04-23T01:27:35.655Z,65.41
2024-04-23T01:29:57.979Z,65.46
2024-04-23T01:32:23.877Z,65.27
2024-04-23T01:34:46.785Z,64.89
2024-04-23T01:37:10.881Z,64.69
2024-04-23T01:39:33.704Z,64.63
2024-04-23T01:41:55.809Z,64.60
2024-04-23T01:44:19.791Z,64.45
2024-04-23T01:46:42.024Z,64.55
2024-04-23T01:49:04.549Z,64.11
2024-04-23T01:51:26.675Z,64.49
2024-04-23T01:53:48.539Z,64.38
2024-04-23T01:56:10.703Z,64.37
2024-04-23T01:58:32.777Z,64.17
2024-04-23T02:00:58.669Z,64.51
2024-04-23T02:03:22.937Z,64.52
2024-04-23T02:05:45.749Z,64.52
2024-04-23T02:08:08.442Z,64.20
2024-04-23T02:10:30.888Z,64.30
2024-04-23T02:12:53.019Z,64.46
2024-04-23T02:15:14.812Z,64.14
2024-04-23T02:17:37.618Z,63.76
2024-04-23T02:19:59.543Z,64.14
2024-04-23T02:22:21.430Z,64.04
2024-04-23T02:24:43.275Z,63.84
2024-04-23T02:27:05.475Z,63.81
2024-04-23T02:29:27.357Z,64.12
2024-04-23T02:31:49.231Z,64.64
2024-04-23T02:34:12.597Z,64.50
2024-04-23T02:36:34.410Z,64.46
2024-04-23T02:38:57.394Z,64.27
2024-04-23T02:41:20.373Z,64.27
2024-04-23T02:43:42.228Z,64.28
2024-04-23T02:46:04.801Z,64.31
2024-04-23T02:48:26.761Z,65.89
2024-04-23T02:50:48.742Z,66.88
2024-04-23T02:53:10.667Z,67.00
2024-04-23T02:55:32.443Z,66.91
2024-04-23T02:57:54.349Z,67.21
2024-04-23T03:00:16.462Z,66.64
2024-04-23T03:02:38.594Z,66.58
2024-04-23T03:05:00.870Z,66.43
2024-04-23T03:07:22.911Z,65.91
2024-04-23T03:09:44.738Z,65.89
2024-04-23T03:12:06.844Z,65.90
2024-04-23T03:14:28.675Z,66.10
2024-04-23T03:16:50.682Z,66.29
2024-04-23T03:19:12.681Z,66.25
2024-04-23T03:21:34.534Z,66.64
2024-04-23T03:23:56.491Z,66.16
2024-04-23T03:26:19.397Z,66.27
2024-04-23T03:28:41.246Z,66.44
2024-04-23T03:31:03.184Z,66.54
2024-04-23T03:33:26.635Z,66.38
2024-04-23T03:35:48.445Z,66.19
2024-04-23T03:38:10.245Z,66.45
2024-04-23T03:40:32.651Z,66.72
2024-04-23T03:42:54.498Z,67.25
2024-04-23T03:45:16.388Z,67.55
2024-04-23T03:47:38.356Z,67.70
2024-04-23T03:50:00.507Z,68.12
2024-04-23T03:52:23.147Z,68.80
2024-04-23T03:54:46.095Z,68.84
2024-04-23T03:57:08.040Z,69.05
2024-04-23T03:59:29.852Z,68.53
2024-04-23T04:02:11.798Z,68.75
2024-04-23T04:04:52.302Z,69.11
2024-04-23T04:07:14.192Z,69.54
2024-04-23T04:09:36.074Z,69.40
2024-04-23T04:11:59.353Z,69.34
2024-04-23T04:14:21.250Z,69.67
2024-04-23T04:16:43.133Z,69.98
2024-04-23T04:19:05.109Z,70.14
2024-04-23T04:21:27.041Z,70.38
2024-04-23T04:23:48.901Z,70.26
2024-04-23T04:26:13.234Z,70.03
2024-04-23T04:28:35.099Z,70.01
2024-04-23T04:30:57.146Z,69.76
2024-04-23T04:33:19.029Z,70.22
2024-04-23T04:35:40.934Z,69.91
2024-04-23T04:38:02.792Z,70.08
2024-04-23T04:40:24.722Z,70.14
2024-04-23T04:42:46.721Z,70.42
2024-04-23T04:45:08.636Z,70.19
2024-04-23T04:47:30.595Z,69.93
2024-04-23T04:49:52.621Z,70.16
2024-04-23T04:52:14.427Z,70.43
2024-04-23T04:54:36.259Z,70.29
2024-04-23T04:56:58.108Z,70.15
2024-04-23T04:59:19.917Z,70.19
2024-04-23T05:01:41.871Z,70.14
2024-04-23T05:04:04.641Z,70.49
2024-04-23T05:06:26.597Z,70.17
2024-04-23T05:08:48.425Z,70.34
2024-04-23T05:11:10.418Z,70.35
2024-04-23T05:13:32.367Z,70.24
2024-04-23T05:15:54.159Z,70.15
2024-04-23T05:18:16.038Z,70.03
2024-04-23T05:20:39.153Z,69.79
2024-04-23T05:23:01.096Z,69.78
2024-04-23T05:25:24.496Z,69.40
2024-04-23T05:27:47.587Z,69.25
2024-04-23T05:30:19.995Z,69.22
2024-04-23T05:32:52.409Z,69.30
2024-04-23T05:35:14.965Z,68.95
2024-04-23T05:37:36.985Z,69.08
2024-04-23T05:39:58.836Z,68.83
2024-04-23T05:42:21.678Z,68.91
2024-04-23T05:44:43.554Z,68.94
2024-04-23T05:47:05.542Z,68.96
2024-04-23T05:50:28.286Z,68.87
2024-04-23T05:54:09.414Z,68.63
2024-04-23T05:56:50.558Z,68.67
2024-04-23T05:59:12.451Z,68.31
2024-04-23T06:01:34.380Z,68.60
2024-04-23T06:03:56.204Z,68.69
2024-04-23T06:06:18.057Z,68.51
2024-04-23T06:08:39.863Z,68.39
2024-04-23T06:11:01.923Z,68.27
2024-04-23T06:13:23.875Z,68.32
2024-04-23T06:15:45.677Z,68.34
2024-04-23T06:18:07.716Z,67.93
2024-04-23T06:20:29.705Z,67.83
2024-04-23T06:22:53.903Z,67.72
2024-04-23T06:25:16.360Z,67.75
2024-04-23T06:27:40.140Z,67.49
2024-04-23T06:30:07.743Z,67.41
2024-04-23T06:32:29.725Z,67.36
2024-04-23T06:34:51.623Z,67.35
2024-04-23T06:37:14.173Z,67.44
2024-04-23T06:39:36.183Z,66.90
2024-04-23T06:41:58.132Z,66.74
2024-04-23T06:44:19.943Z,66.55
2024-04-23T06:46:41.748Z,66.68
2024-04-23T06:49:03.528Z,65.55
2024-04-23T06:51:25.401Z,65.35
2024-04-23T06:53:47.265Z,65.17
2024-04-23T06:56:09.108Z,64.66
2024-04-23T06:58:31.932Z,64.34
2024-04-23T07:00:59.871Z,64.00
2024-04-23T07:03:21.797Z,63.04
2024-04-23T07:05:43.762Z,63.02
2024-04-23T07:08:06.398Z,62.51
2024-04-23T07:10:28.281Z,62.71
2024-04-23T07:12:50.089Z,62.43
2024-04-23T07:15:11.957Z,61.67
2024-04-23T07:17:33.984Z,61.87
2024-04-23T07:19:56.018Z,61.38
2024-04-23T07:22:18.465Z,60.87
2024-04-23T07:24:41.584Z,60.44
2024-04-23T07:27:03.781Z,61.05
2024-04-23T07:29:28.831Z,61.34
2024-04-23T07:31:50.670Z,59.88
2024-04-23T07:34:12.484Z,59.19
2024-04-23T07:36:34.430Z,58.98
2024-04-23T07:38:56.689Z,59.10
2024-04-23T07:41:18.581Z,57.77
2024-04-23T07:43:43.638Z,57.44
2024-04-23T07:46:05.534Z,58.37
2024-04-23T07:48:27.621Z,57.39
2024-04-23T07:50:51.390Z,57.76
2024-04-23T07:53:13.259Z,57.91
2024-04-23T07:55:35.118Z,57.75
2024-04-23T07:57:56.961Z,56.30
2024-04-23T08:00:20.032Z,55.17
2024-04-23T08:02:44.676Z,55.57
2024-04-23T08:05:07.750Z,55.85
2024-04-23T08:07:29.711Z,56.01
2024-04-23T08:09:51.522Z,55.64
2024-04-23T08:12:13.340Z,53.74
2024-04-23T08:14:35.211Z,53.33
2024-04-23T08:16:57.241Z,51.90
2024-04-23T08:19:19.201Z,52.02
2024-04-23T08:21:41.398Z,52.90
2024-04-23T08:24:03.326Z,52.79
2024-04-23T08:26:25.218Z,53.13
2024-04-23T08:28:48.025Z,53.39
2024-04-23T08:31:09.936Z,52.45
2024-04-23T08:33:31.932Z,51.18
2024-04-23T08:35:57.223Z,51.45
2024-04-23T08:38:19.096Z,51.86
2024-04-23T08:40:41.035Z,50.47
2024-04-23T08:43:16.390Z,49.25
2024-04-23T08:45:41.454Z,48.71
2024-04-23T08:48:05.276Z,48.76
2024-04-23T08:50:29.006Z,46.11
2024-04-23T08:52:51.754Z,46.86
2024-04-23T08:55:13.744Z,46.40
2024-04-23T08:57:37.348Z,44.57
2024-04-23T09:00:00.470Z,45.74
2024-04-23T09:02:31.015Z,44.93
2024-04-23T09:04:59.329Z,43.91
2024-04-23T09:07:28.050Z,43.36
2024-04-23T09:09:55.878Z,43.92
2024-04-23T09:12:18.076Z,44.18
2024-04-23T09:14:39.984Z,44.14
2024-04-23T09:17:02.406Z,44.10
2024-04-23T09:19:25.605Z,44.29
2024-04-23T09:21:48.317Z,42.07
2024-04-23T09:24:10.166Z,41.56
2024-04-23T09:26:32.915Z,41.00
2024-04-23T09:28:54.919Z,40.66
2024-04-23T09:31:21.972Z,39.62
2024-04-23T09:33:55.035Z,40.22
2024-04-23T09:36:16.924Z,39.51
2024-04-23T09:38:42.714Z,39.27
2024-04-23T09:41:06.391Z,40.26
2024-04-23T09:43:28.405Z,40.05
2024-04-23T09:45:52.031Z,40.17
2024-04-23T09:48:16.037Z,39.55
2024-04-23T09:50:38.126Z,39.52
2024-04-23T09:53:11.073Z,36.40
2024-04-23T09:55:33.188Z,36.74
2024-04-23T09:57:55.140Z,36.87
2024-04-23T10:00:20.635Z,37.13
2024-04-23T10:02:45.793Z,37.60
2024-04-23T10:05:14.539Z,38.37
2024-04-23T10:08:05.549Z,38.61
2024-04-23T10:10:53.420Z,39.42
2024-04-23T10:13:22.994Z,40.24
2024-04-23T10:15:57.119Z,41.02
2024-04-23T10:18:36.273Z,40.93
2024-04-23T10:21:02.629Z,41.11
2024-04-23T10:23:25.206Z,41.57
2024-04-23T10:25:48.392Z,41.86
2024-04-23T10:28:10.683Z,41.61
2024-04-23T10:30:34.411Z,41.33
2024-04-23T10:32:58.548Z,42.21
2024-04-23T10:35:22.923Z,42.31
2024-04-23T10:37:47.007Z,41.87
2024-04-23T10:40:12.958Z,42.03
2024-04-23T10:42:34.889Z,41.19
2024-04-23T10:44:58.336Z,41.52
2024-04-23T10:47:20.489Z,41.20
2024-04-23T10:49:42.817Z,39.71
2024-04-23T10:52:06.639Z,39.89
2024-04-23T10:54:30.128Z,40.35
2024-04-23T10:57:09.204Z,39.42
2024-04-23T10:59:33.703Z,38.28
2024-04-23T11:02:07.341Z,36.44
2024-04-23T11:04:46.554Z,36.86
2024-04-23T11:07:11.910Z,38.24
2024-04-23T11:09:39.042Z,36.47
2024-04-23T11:12:01.488Z,36.45
2024-04-23T11:14:38.882Z,36.52
2024-04-23T11:17:06.225Z,36.37
2024-04-23T11:19:49.902Z,36.47
2024-04-23T11:22:15.114Z,37.24
2024-04-23T11:24:45.201Z,37.05
2024-04-23T11:27:07.711Z,37.35
2024-04-23T11:29:30.139Z,37.68
2024-04-23T11:31:53.988Z,37.01
2024-04-23T11:34:16.362Z,37.73
2024-04-23T11:36:39.400Z,38.30
2024-04-23T11:39:07.629Z,38.27
2024-04-23T11:41:29.520Z,38.63
2024-04-23T11:43:51.465Z,39.04
2024-04-23T11:46:15.574Z,38.91
2024-04-23T11:48:37.482Z,36.80
2024-04-23T11:50:59.650Z,36.64
2024-04-23T11:53:23.042Z,36.93
2024-04-23T11:55:44.948Z,37.20
2024-04-23T11:58:06.949Z,38.06
2024-04-23T12:00:29.202Z,38.47
2024-04-23T12:02:51.084Z,37.38
2024-04-23T12:05:15.814Z,35.25
2024-04-23T12:07:40.121Z,34.82
2024-04-23T12:10:05.427Z,34.86
2024-04-23T12:12:27.791Z,35.39
2024-04-23T12:14:49.687Z,36.73
2024-04-23T12:17:12.754Z,36.90
2024-04-23T12:19:37.884Z,35.01
2024-04-23T12:22:02.804Z,34.12
2024-04-23T12:24:29.343Z,32.58
2024-04-23T12:26:54.241Z,33.00
2024-04-23T12:29:16.094Z,33.24
2024-04-23T12:31:39.202Z,33.38
2024-04-23T12:34:01.872Z,33.72
2024-04-23T12:36:23.835Z,34.03
2024-04-23T12:38:47.184Z,34.04
2024-04-23T12:41:09.110Z,34.30
2024-04-23T12:43:31.011Z,34.48
2024-04-23T12:45:52.777Z,35.19
2024-04-23T12:48:14.865Z,35.06
2024-04-23T12:50:36.827Z,36.15
2024-04-23T12:52:59.172Z,36.80
2024-04-23T12:55:21.146Z,36.45
2024-04-23T12:57:43.247Z,36.25
2024-04-23T13:00:05.892Z,35.10
2024-04-23T13:02:27.914Z,34.90
2024-04-23T13:04:49.838Z,35.13
2024-04-23T13:07:13.118Z,35.22
2024-04-23T13:09:35.937Z,36.25
2024-04-23T13:12:00.733Z,36.18
2024-04-23T13:14:22.715Z,35.63
2024-04-23T13:16:48.969Z,35.17
2024-04-23T13:19:11.694Z,35.76
2024-04-23T13:21:33.572Z,35.01
2024-04-23T13:23:55.448Z,35.43
2024-04-23T13:26:17.280Z,35.42
2024-04-23T13:28:39.249Z,34.64
2024-04-23T13:31:01.128Z,34.29
2024-04-23T13:33:23.365Z,34.28
2024-04-23T13:35:45.230Z,32.55
2024-04-23T13:38:07.145Z,32.42
2024-04-23T13:40:30.690Z,33.07
2024-04-23T13:42:52.516Z,31.96
2024-04-23T13:45:14.421Z,31.28
2024-04-23T13:47:41.326Z,32.45
2024-04-23T13:50:08.421Z,32.67
2024-04-23T13:52:30.487Z,32.79
2024-04-23T13:54:52.330Z,32.93
2024-04-23T13:57:14.137Z,33.70
2024-04-23T13:59:36.635Z,33.83
2024-04-23T14:02:02.624Z,33.76
2024-04-23T14:04:24.988Z,33.39
2024-04-23T14:06:47.712Z,32.85
2024-04-23T14:09:09.762Z,32.67
2024-04-23T14:11:32.033Z,33.22
2024-04-23T14:13:54.005Z,33.05
2024-04-23T14:16:15.872Z,33.05
2024-04-23T14:18:38.982Z,31.79
2024-04-23T14:21:01.268Z,32.44
2024-04-23T14:23:23.117Z,32.06
2024-04-23T14:25:45.010Z,32.97
2024-04-23T14:28:11.017Z,32.28
2024-04-23T14:30:33.122Z,31.33
2024-04-23T14:32:55.043Z,32.31
2024-04-23T14:35:17.040Z,31.17
2024-04-23T14:37:39.222Z,31.13
2024-04-23T14:40:03.609Z,31.68
2024-04-23T14:42:27.002Z,30.97
2024-04-23T14:44:50.845Z,30.73
2024-04-23T14:47:12.938Z,30.86
2024-04-23T14:49:34.790Z,31.61
2024-04-23T14:51:56.961Z,32.19
2024-04-23T14:54:18.804Z,32.23
2024-04-23T14:56:40.638Z,31.94
2024-04-23T14:59:02.757Z,32.19
2024-04-23T15:01:25.898Z,31.55
2024-04-23T15:03:47.880Z,29.94
2024-04-23T15:06:12.343Z,29.97
2024-04-23T15:08:36.690Z,30.94
2024-04-23T15:10:58.695Z,30.88
2024-04-23T15:13:22.865Z,30.94
2024-04-23T15:15:45.921Z,31.61
2024-04-23T15:18:08.405Z,31.92
2024-04-23T15:20:30.404Z,31.38
2024-04-23T15:22:55.358Z,32.02
2024-04-23T15:25:17.748Z,31.62
2024-04-23T15:27:39.528Z,31.01
2024-04-23T15:30:01.394Z,30.76
2024-04-23T15:32:23.507Z,31.00
2024-04-23T15:34:45.349Z,30.85
2024-04-23T15:37:07.482Z,30.90
2024-04-23T15:39:29.366Z,30.84
2024-04-23T15:41:51.206Z,31.10
2024-04-23T15:44:13.115Z,30.95
2024-04-23T15:46:35.148Z,30.84
2024-04-23T15:48:58.678Z,31.21
2024-04-23T15:51:20.520Z,31.66
2024-04-23T15:53:42.349Z,31.06
2024-04-23T15:56:05.705Z,31.45
2024-04-23T15:58:31.950Z,31.43
2024-04-23T16:00:53.888Z,31.32
2024-04-23T16:03:16.104Z,32.02
2024-04-23T16:05:38.104Z,31.38
2024-04-23T16:07:59.984Z,30.64
2024-04-23T16:10:21.832Z,30.76
2024-04-23T16:12:43.728Z,30.60
2024-04-23T16:15:06.113Z,31.09
2024-04-23T16:17:28.002Z,31.77
2024-04-23T16:19:49.957Z,32.16
2024-04-23T16:22:11.805Z,32.11
2024-04-23T16:24:33.689Z,32.52
2024-04-23T16:26:57.030Z,32.84
2024-04-23T16:29:20.513Z,33.12
2024-04-23T16:31:42.518Z,33.12
2024-04-23T16:34:04.402Z,33.52
2024-04-23T16:36:28.421Z,33.33
2024-04-23T16:38:50.306Z,33.50
2024-04-23T16:41:12.260Z,33.39
2024-04-23T16:43:34.684Z,33.95
2024-04-23T16:46:10.363Z,34.13
2024-04-23T16:48:36.579Z,34.03
2024-04-23T16:50:58.810Z,34.44
2024-04-23T16:53:21.795Z,34.25
2024-04-23T16:55:44.808Z,33.91
2024-04-23T16:58:07.285Z,32.94
2024-04-23T17:00:29.509Z,32.94
2024-04-23T17:02:51.545Z,33.14
2024-04-23T17:05:14.252Z,33.63
2024-04-23T17:07:36.826Z,33.95
2024-04-23T17:09:59.379Z,34.14
2024-04-23T17:12:21.468Z,34.71
2024-04-23T17:14:43.669Z,35.27
2024-04-23T17:17:06.324Z,35.77
2024-04-23T17:19:28.437Z,36.38
2024-04-23T17:21:52.220Z,37.14
2024-04-23T17:24:14.642Z,37.75
2024-04-23T17:26:37.589Z,38.17
2024-04-23T17:29:01.321Z,39.17
2024-04-23T17:31:26.526Z,39.66
2024-04-23T17:33:50.085Z,41.38
2024-04-23T17:36:12.608Z,42.02
2024-04-23T17:38:35.195Z,43.47
2024-04-23T17:40:57.438Z,43.64
2024-04-23T17:43:19.588Z,44.63
2024-04-23T17:45:41.809Z,45.26
2024-04-23T17:48:04.353Z,45.41
2024-04-23T17:50:26.370Z,45.91
2024-04-23T17:52:51.224Z,46.22
2024-04-23T17:55:13.481Z,47.23
2024-04-23T17:57:35.692Z,48.64
2024-04-23T17:59:57.819Z,49.67
2024-04-23T18:02:19.787Z,50.61
2024-04-23T18:04:41.995Z,51.78
2024-04-23T18:07:04.090Z,52.17
2024-04-23T18:09:28.055Z,53.25
2024-04-23T18:11:50.070Z,54.10
2024-04-23T18:14:12.203Z,55.05
2024-04-23T18:16:35.298Z,56.26
2024-04-23T18:19:00.683Z,57.44
2024-04-23T18:21:25.093Z,57.44
2024-04-23T18:23:48.766Z,58.46
2024-04-23T18:26:11.893Z,59.11
2024-04-23T18:28:38.419Z,59.31
2024-04-23T18:31:06.799Z,58.67
2024-04-23T18:33:31.327Z,59.40
2024-04-23T18:35:53.909Z,59.89
2024-04-23T18:40:37.878Z,59.91
2024-04-23T18:42:59.820Z,59.61
2024-04-23T18:45:22.170Z,59.90
2024-04-23T18:47:44.608Z,59.56
2024-04-23T18:50:07.585Z,60.02
2024-04-23T18:52:29.486Z,59.85
2024-04-23T18:54:51.686Z,60.59
2024-04-23T18:57:17.507Z,60.72
2024-04-23T18:59:39.602Z,60.66
2024-04-23T19:02:03.286Z,60.31
2024-04-23T19:04:25.386Z,60.78
2024-04-23T19:06:47.751Z,61.19
2024-04-23T19:09:10.098Z,61.49
2024-04-23T19:11:32.966Z,62.26
2024-04-23T19:14:06.847Z,62.39
2024-04-23T19:16:33.660Z,62.02
2024-04-23T19:18:57.306Z,61.91
2024-04-23T19:21:23.750Z,61.99
2024-04-23T19:23:45.907Z,61.23
2024-04-23T19:26:08.632Z,61.34
2024-04-23T19:28:34.543Z,61.79
2024-04-23T19:30:57.322Z,61.81
2024-04-23T19:33:19.363Z,61.61
2024-04-23T19:35:41.504Z,61.66
2024-04-23T19:38:03.643Z,61.46
2024-04-23T19:40:27.625Z,62.38
2024-04-23T19:42:51.864Z,62.18
2024-04-23T19:45:15.444Z,62.68
2024-04-23T19:47:38.401Z,62.66
2024-04-23T19:50:00.880Z,62.67
2024-04-23T19:52:24.004Z,63.33
2024-04-23T19:54:46.457Z,63.19
2024-04-23T19:57:08.469Z,63.49
2024-04-23T19:59:33.250Z,64.05
2024-04-23T20:01:55.507Z,64.61
2024-04-23T20:04:17.738Z,65.08
2024-04-23T20:06:40.075Z,65.88
2024-04-23T20:09:04.752Z,66.95
2024-04-23T20:11:26.779Z,67.33
2024-04-23T20:13:48.713Z,67.84
2024-04-23T20:16:10.807Z,69.10
2024-04-23T20:18:33.495Z,69.69
2024-04-23T20:20:55.847Z,69.87
2024-04-23T20:23:17.918Z,70.57
2024-04-23T20:25:41.964Z,70.63
2024-04-23T20:28:15.349Z,70.36
2024-04-23T20:30:37.987Z,70.40
2024-04-23T20:32:59.995Z,72.51
2024-04-23T20:35:23.170Z,72.90
2024-04-23T20:37:45.165Z,73.91
2024-04-23T20:40:07.922Z,74.60
2024-04-23T20:42:32.854Z,75.22
2024-04-23T20:44:54.794Z,74.93
2024-04-23T20:47:16.964Z,74.49
2024-04-23T20:49:39.034Z,74.10
2024-04-23T20:52:01.119Z,74.10
2024-04-23T20:54:23.124Z,74.05
2024-04-23T20:56:45.044Z,73.07
2024-04-23T20:59:07.301Z,73.56
2024-04-23T21:01:29.340Z,73.55
2024-04-23T21:03:51.340Z,73.04
2024-04-23T21:06:14.417Z,73.38
2024-04-23T21:08:42.711Z,73.53
2024-04-23T21:11:13.768Z,73.12
2024-04-23T21:13:35.762Z,73.70
2024-04-23T21:15:57.756Z,72.98
2024-04-23T21:18:19.828Z,73.16
2024-04-23T21:20:41.832Z,73.60
2024-04-23T21:23:03.987Z,73.78
2024-04-23T21:25:26.008Z,73.27
2024-04-23T21:27:50.419Z,74.38
2024-04-23T21:30:12.309Z,74.61
2024-04-23T21:32:34.535Z,74.97
2024-04-23T21:34:56.653Z,75.42
2024-04-23T21:37:18.717Z,75.75
2024-04-23T21:39:40.633Z,75.80
2024-04-23T21:42:02.689Z,75.27
2024-04-23T21:44:24.667Z,75.12
2024-04-23T21:46:47.740Z,74.82
2024-04-23T21:49:09.937Z,74.74
2024-04-23T21:51:35.799Z,74.48
2024-04-23T21:53:58.472Z,74.41
2024-04-23T21:56:20.536Z,74.40
2024-04-23T21:59:34.028Z,74.46
2024-04-23T22:01:56.048Z,74.46
2024-04-23T22:04:18.174Z,74.13
2024-04-23T22:06:40.197Z,74.15
2024-04-23T22:09:05.424Z,74.37
2024-04-23T22:11:28.002Z,74.01
2024-04-23T22:13:50.123Z,73.94
2024-04-23T22:16:12.235Z,73.92
2024-04-23T22:18:34.386Z,73.93
2024-04-23T22:20:56.303Z,73.91
2024-04-23T22:23:18.543Z,74.02
2024-04-23T22:25:40.854Z,74.37
2024-04-23T22:28:02.900Z,74.34
2024-04-23T22:30:24.860Z,74.52
2024-04-23T22:32:47.014Z,74.67
2024-04-23T22:36:24.459Z,74.37
2024-04-23T22:40:20.582Z,74.75
2024-04-23T22:44:16.578Z,74.70
2024-04-23T22:48:12.069Z,74.42
2024-04-23T22:52:08.003Z,74.83
2024-04-23T22:56:04.175Z,74.48
2024-04-23T23:00:02.262Z,74.28
2024-04-23T23:03:59.575Z,73.93
2024-04-23T23:07:57.520Z,74.03
2024-04-23T23:11:53.444Z,73.50
2024-04-23T23:15:55.796Z,73.47
2024-04-23T23:19:54.331Z,73.73
2024-04-23T23:23:50.053Z,73.78
2024-04-23T23:27:52.699Z,74.12
2024-04-23T23:31:54.690Z,73.93
2024-04-23T23:35:56.745Z,74.31
2024-04-23T23:39:58.947Z,74.32
2024-04-23T23:43:55.172Z,74.26
2024-04-23T23:47:51.419Z,74.32
2024-04-23T23:51:47.734Z,74.41
2024-04-23T23:55:49.697Z,74.40
2024-04-23T23:59:52.086Z,74.01
